»·PEaware :: N4VY KSAD-KTUS

N4VY :: KSAD-KTUS

FLIGHT INFORMATION

Flight Status: Arrived
Operator: Privately registered:
United States
More flights under this callsign
Pilot: Jeremy H. (30118)
Aircraft: CESSNA 172 SKYHAWK
(C172)
More flights by this aircraft type
Origin: KSAD Safford Regl
United States
Destination: KTUS Tucson Intl
United States
More flights between these airports :: More routes between these airports
Route:
File this flight plan on PilotEdge
Remarks:
Altitude:
(Current/Filed)
8,500ft
Speed:
(Current/Filed)
110kts
Departed: 09-Oct-20 02:19 PM
Arrived: 09-Oct-20 03:17 PM
Distance/Time
Traveled:
79nm/0:58
Distance/Time
To Go:
Arrived

Flight Plot

Page will automatically refresh every two minutes.

Flight plan parsing failed; only flown route is shown


Map Options




Map Legend


Flown Route
Filed Route
Departure Airport
Arrival Airport
Navaid (VOR, NDB)
Fix

Horizontal Profiles

Position Reports

Time Latitude Longitude Heading Altitude Ground
Speed
09-Oct-20 14:15 32.852364 -109.638805 87 3165ft 0kts
09-Oct-20 14:16 32.852364 -109.638805 87 3165ft 0kts
09-Oct-20 14:17 32.852459 -109.638854 87 3165ft 0kts
09-Oct-20 14:18 32.853617 -109.642523 336 3159ft 0kts
09-Oct-20 14:19 32.853216 -109.629895 95 3262ft 86kts
09-Oct-20 14:20 32.833840 -109.607650 173 3789ft 109kts
09-Oct-20 14:20 32.809189 -109.613450 202 4226ft 112kts
09-Oct-20 14:22 32.773919 -109.625573 210 4853ft 109kts
09-Oct-20 14:22 32.753806 -109.634609 209 5655ft 76kts
09-Oct-20 14:24 32.733292 -109.643763 210 6338ft 75kts
09-Oct-20 14:24 32.714448 -109.652645 207 6630ft 98kts
09-Oct-20 14:26 32.686677 -109.664901 210 7507ft 62kts
09-Oct-20 14:26 32.672441 -109.671405 213 7893ft 67kts
09-Oct-20 14:27 32.654258 -109.679685 210 8342ft 75kts
09-Oct-20 14:28 32.632980 -109.689382 209 8521ft 104kts
09-Oct-20 14:29 32.603565 -109.702509 208 8513ft 117kts
09-Oct-20 14:30 32.572822 -109.716213 206 8509ft 119kts
09-Oct-20 14:31 32.541950 -109.729994 207 8511ft 118kts
09-Oct-20 14:32 32.510926 -109.743848 206 8513ft 120kts
09-Oct-20 14:34 32.475007 -109.759848 207 8511ft 117kts
09-Oct-20 14:34 32.449917 -109.771170 213 8511ft 116kts
09-Oct-20 14:35 32.435727 -109.802824 250 8512ft 110kts
09-Oct-20 14:36 32.425537 -109.836975 252 8515ft 110kts
09-Oct-20 14:37 32.415974 -109.871088 252 8511ft 109kts
09-Oct-20 14:38 32.406496 -109.905522 253 8510ft 110kts
09-Oct-20 14:39 32.397071 -109.939786 253 8511ft 110kts
09-Oct-20 14:40 32.387576 -109.974380 252 8510ft 110kts
09-Oct-20 14:41 32.378114 -110.008813 251 8504ft 109kts
09-Oct-20 14:42 32.368677 -110.043113 251 8501ft 110kts
09-Oct-20 14:43 32.359178 -110.077568 250 8498ft 110kts
09-Oct-20 14:44 32.349645 -110.112116 249 8493ft 110kts
09-Oct-20 14:45 32.340058 -110.146843 249 8489ft 111kts
09-Oct-20 14:46 32.330380 -110.181816 248 8485ft 112kts
09-Oct-20 14:47 32.320644 -110.216961 248 8483ft 112kts
09-Oct-20 14:48 32.310901 -110.252097 248 8487ft 112kts
09-Oct-20 14:49 32.301096 -110.287424 248 8490ft 112kts
09-Oct-20 14:50 32.291279 -110.322751 248 8491ft 112kts
09-Oct-20 14:51 32.281439 -110.358119 248 8489ft 112kts
09-Oct-20 14:52 32.271481 -110.393702 247 8484ft 112kts
09-Oct-20 14:53 32.261142 -110.429157 248 8482ft 112kts
09-Oct-20 14:54 32.256569 -110.445305 248 8482ft 112kts
09-Oct-20 14:55 32.256569 -110.445305 248 8482ft 112kts
09-Oct-20 14:56 32.256569 -110.445305 248 8482ft 112kts
09-Oct-20 14:57 32.256569 -110.445305 248 8482ft 112kts
09-Oct-20 14:58 32.256569 -110.445305 248 8482ft 112kts
09-Oct-20 14:59 32.256569 -110.445305 248 8482ft 112kts
09-Oct-20 15:00 32.240225 -110.458554 179 8483ft 114kts
09-Oct-20 15:01 32.214742 -110.473805 225 8482ft 110kts
09-Oct-20 15:02 32.193830 -110.499694 226 8482ft 110kts
09-Oct-20 15:03 32.172713 -110.525883 226 8482ft 110kts
09-Oct-20 15:04 32.151280 -110.552498 225 8427ft 114kts
09-Oct-20 15:05 32.128808 -110.580375 225 8214ft 119kts
09-Oct-20 15:06 32.105941 -110.608878 226 7998ft 120kts
09-Oct-20 15:07 32.083042 -110.637519 226 7780ft 120kts
09-Oct-20 15:08 32.060534 -110.665762 225 7574ft 120kts
09-Oct-20 15:09 32.039961 -110.699813 246 6982ft 131kts
09-Oct-20 15:10 32.040235 -110.741900 272 6355ft 120kts
09-Oct-20 15:11 32.044907 -110.781730 272 5426ft 127kts
09-Oct-20 15:12 32.049605 -110.823484 272 4418ft 129kts
09-Oct-20 15:13 32.060929 -110.861756 301 3675ft 125kts
09-Oct-20 15:14 32.075497 -110.892663 311 3384ft 112kts
09-Oct-20 15:15 32.091447 -110.911038 314 2983ft 77kts
09-Oct-20 15:16 32.104210 -110.925423 346 2640ft 24kts
09-Oct-20 15:17 32.105826 -110.929121 221 2629ft 0kts
09-Oct-20 15:18 32.104344 -110.929915 167 2630ft 0kts

Navigation Log

Ident Type
Flight plan parsing failed, navigation log unavailable